02:02 MESZ | 05.09.2026 Profi-Wetter| Mobile Seite| Kontakt| Impressum| Datenschutz
Social

Wetterstation Wiesbaden

Messwerte
  Temperatur Wetter Niederschlag Luftdruck Wind
Sa, 01:55 Uhr 18° -0.1 mm 1017 hPa 10 km/h NW
Sa, 01:13 Uhr 18° - 1017 hPa 8 km/h W
Sa, 00:55 Uhr 18° -0.1 mm 1017 hPa -
Sa, 00:44 Uhr 18° - 1017 hPa 5 km/h N
Fr, 23:55 Uhr 18° 0.3 mm 1017 hPa 13 km/h NW
Fr, 23:08 Uhr 18° - 1016 hPa 11 km/h N
Fr, 22:55 Uhr 18° -0.1 mm 1017 hPa 10 km/h N
Fr, 22:21 Uhr 20° - 1016 hPa 26 km/h NW

Böen 37 km/h
Fr, 21:55 Uhr 21° 0 mm 1015 hPa 23 km/h N

Böen 35 km/h
Fr, 21:22 Uhr 26° - 1014 hPa 32 km/h NW

Böen 51 km/h
Fr, 20:55 Uhr 26° 0 mm 1013 hPa 34 km/h W
Fr, 19:55 Uhr 27° 0 mm 1013 hPa 29 km/h W
Fr, 18:55 Uhr 29° 0 mm 1012 hPa 29 km/h W

Böen 40 km/h
Fr, 17:55 Uhr 29° 0 mm 1012 hPa 26 km/h W

Böen 39 km/h
Fr, 16:55 Uhr 30° 0 mm 1012 hPa 29 km/h W

Böen 40 km/h
Fr, 15:55 Uhr 31° 0 mm 1012 hPa 26 km/h W

Böen 40 km/h
Fr, 14:55 Uhr 29° 0 mm 1013 hPa 26 km/h W
Fr, 13:55 Uhr 29° 0 mm 1013 hPa 37 km/h SW

Böen 47 km/h
Fr, 12:55 Uhr 29° 0 mm 1014 hPa 34 km/h W

Böen 48 km/h
Fr, 11:55 Uhr 28° 0 mm 1015 hPa 27 km/h SW

Böen 47 km/h

Alle Zeitangaben MESZ